chinaelc.cn alexa rank chart, chinaelc.cn alexa rank daily changes

chinaelc.cn alexa rank chart, chinaelc.cn alexa rank daily changes

chinaelc.cn
Actual rank:
953 327

RANK HISTORY

Date Rank Diff
2017/10/17 953 327 -3 323
2017/10/16 956 650 -6 181
2017/10/14 962 831 -1 423
2017/10/13 964 254 -1 078
2017/10/12 965 332 +4 286
2017/10/11 961 046 +4 523
2017/10/10 956 523 -3 090
2017/10/09 959 613 -4 961
2017/10/08 964 574 -2 392
2017/10/07 966 966 -1 861
2017/10/06 968 827 -571
2017/10/05 969 398 +3 331
2017/10/04 966 067 +4 036
2017/10/03 962 031 -3 204
2017/10/02 965 235 -4 395
2017/10/01 969 630 -28 743
2017/09/30 998 373 -1 273
2017/09/29 999 646 +105 088
2017/09/26 894 558 +237 903
2017/09/25 656 655 -3 046
2017/09/24 659 701 +135 779
2017/09/23 523 922 +2 429
2017/09/22 521 493 -131 029
2017/09/20 652 522 +1 363
2017/09/19 651 159 -2 134
2017/09/18 653 293 +128 489
2017/09/17 524 804 -68
2017/09/16 524 872 +275
2017/09/15 524 597 +2 540
2017/09/14 522 057 +3 542
2017/09/13 518 515 +81 381
2017/09/12 437 134 -1 215
2017/09/11 438 349 -1 704
2017/09/10 440 053 -322
2017/09/09 440 375 +55 866
2017/09/08 384 509 +1 982
2017/09/07 382 527 +2 342
2017/09/06 380 185 +361
2017/09/05 379 824 -1 196
2017/09/04 381 020 -1 589
2017/09/03 382 609 +41 959
2017/09/02 340 650 -369
2017/09/01 341 019 +1 920
2017/08/31 339 099 +1 741
2017/08/30 337 358 +706
2017/08/29 336 652 +33 966
2017/08/28 302 686 -1 412
2017/08/27 304 098 -36 243
2017/08/26 340 341 -45 374
2017/08/25 385 715 +1 482
2017/08/24 384 233 -63 083
2017/08/23 447 316 +658
2017/08/22 446 658 -1 947
2017/08/21 448 605 -2 352
2017/08/20 450 957 -553
2017/08/19 451 510 -594
2017/08/18 452 104

WIDGET FOR YOUR SITE

DOMAINS WITH THE NEAREST RANK

Domain Rank
kovaninabytkove.cz 953 322
qor.green 953 323
in-portal.hr 953 324
interesnyesaity.ru 953 325
comtecmed.com 953 326
chinaelc.cn 953 327
djmtes.com 953 328
pruna.com 953 329
infoaborto.org 953 330
easterncoal.gov.in 953 331
bootandsaddlephilly.com 953 332

DOMAINS WITH THE NEAREST RANK BY TLD .cn

Domain Rank
weixinrj.cn 951 489
garmindev.cn 952 479
pgp.cn 952 483
protopie.cn 952 667
biopatent.cn 953 027
chinaelc.cn 953 327
web-designers.cn 953 413
35space.cn 953 452
vaillant.cn 953 528
fansquan.cn 953 862
freepig.cn 954 985